sensor_id;sensor_type;location;lat;lon;timestamp;temperature;humidity
34873;DHT22;21084;51.098;14.506;2022-10-24T00:00:23;13.10;99.90
34873;DHT22;21084;51.098;14.506;2022-10-24T00:02:55;13.10;99.90
34873;DHT22;21084;51.098;14.506;2022-10-24T00:05:28;13.10;99.90
34873;DHT22;21084;51.098;14.506;2022-10-24T00:08:02;13.10;99.90
34873;DHT22;21084;51.098;14.506;2022-10-24T00:10:42;13.10;99.90
34873;DHT22;21084;51.098;14.506;2022-10-24T00:13:30;13.10;99.90
34873;DHT22;21084;51.098;14.506;2022-10-24T00:16:03;13.00;99.90
34873;DHT22;21084;51.098;14.506;2022-10-24T00:18:37;13.00;99.90
34873;DHT22;21084;51.098;14.506;2022-10-24T00:21:32;13.10;99.90
34873;DHT22;21084;51.098;14.506;2022-10-24T00:24:26;13.00;99.90
34873;DHT22;21084;51.098;14.506;2022-10-24T00:27:02;13.00;99.90
34873;DHT22;21084;51.098;14.506;2022-10-24T00:29:44;12.90;99.90
34873;DHT22;21084;51.098;14.506;2022-10-24T00:32:27;12.80;99.90
34873;DHT22;21084;51.098;14.506;2022-10-24T00:35:06;12.70;99.90
34873;DHT22;21084;51.098;14.506;2022-10-24T00:37:45;12.70;99.90
34873;DHT22;21084;51.098;14.506;2022-10-24T00:40:42;12.70;99.90
34873;DHT22;21084;51.098;14.506;2022-10-24T00:43:43;12.60;99.90
34873;DHT22;21084;51.098;14.506;2022-10-24T00:46:41;12.50;99.90
34873;DHT22;21084;51.098;14.506;2022-10-24T00:49:45;12.60;99.90
34873;DHT22;21084;51.098;14.506;2022-10-24T00:53:23;12.50;99.90
34873;DHT22;21084;51.098;14.506;2022-10-24T00:56:27;12.40;99.90
34873;DHT22;21084;51.098;14.506;2022-10-24T01:03:28;12.30;99.90
34873;DHT22;21084;51.098;14.506;2022-10-24T01:06:35;12.20;99.90
34873;DHT22;21084;51.098;14.506;2022-10-24T01:13:18;12.30;99.90
34873;DHT22;21084;51.098;14.506;2022-10-24T01:15:52;12.50;99.90
34873;DHT22;21084;51.098;14.506;2022-10-24T01:18:25;12.70;99.90
34873;DHT22;21084;51.098;14.506;2022-10-24T01:21:16;12.70;99.90
34873;DHT22;21084;51.098;14.506;2022-10-24T01:24:48;12.60;99.90
34873;DHT22;21084;51.098;14.506;2022-10-24T01:27:58;12.60;99.90
34873;DHT22;21084;51.098;14.506;2022-10-24T01:34:27;12.50;99.90
34873;DHT22;21084;51.098;14.506;2022-10-24T01:37:18;12.50;99.90
34873;DHT22;21084;51.098;14.506;2022-10-24T01:40:33;12.50;99.90
34873;DHT22;21084;51.098;14.506;2022-10-24T01:43:29;12.60;99.90
34873;DHT22;21084;51.098;14.506;2022-10-24T01:46:18;12.60;99.90
34873;DHT22;21084;51.098;14.506;2022-10-24T01:59:43;12.70;99.90
34873;DHT22;21084;51.098;14.506;2022-10-24T02:02:59;12.70;99.90
34873;DHT22;21084;51.098;14.506;2022-10-24T02:05:46;12.60;99.90
34873;DHT22;21084;51.098;14.506;2022-10-24T02:08:39;12.70;99.90
34873;DHT22;21084;51.098;14.506;2022-10-24T02:11:55;12.70;99.90
34873;DHT22;21084;51.098;14.506;2022-10-24T02:14:41;12.70;99.90
34873;DHT22;21084;51.098;14.506;2022-10-24T02:18:18;12.70;99.90
34873;DHT22;21084;51.098;14.506;2022-10-24T02:22:16;12.80;99.90
34873;DHT22;21084;51.098;14.506;2022-10-24T02:25:06;12.80;99.90
34873;DHT22;21084;51.098;14.506;2022-10-24T02:32:41;13.00;99.90
34873;DHT22;21084;51.098;14.506;2022-10-24T02:40:15;12.80;99.90
34873;DHT22;21084;51.098;14.506;2022-10-24T02:43:20;12.70;99.90
34873;DHT22;21084;51.098;14.506;2022-10-24T02:50:50;12.60;99.90
34873;DHT22;21084;51.098;14.506;2022-10-24T02:54:39;12.60;99.90
34873;DHT22;21084;51.098;14.506;2022-10-24T03:01:46;12.40;99.90
34873;DHT22;21084;51.098;14.506;2022-10-24T03:45:27;11.60;99.90
34873;DHT22;21084;51.098;14.506;2022-10-24T03:48:49;11.70;99.90
34873;DHT22;21084;51.098;14.506;2022-10-24T03:51:59;11.90;99.90
34873;DHT22;21084;51.098;14.506;2022-10-24T03:55:42;11.90;99.90
34873;DHT22;21084;51.098;14.506;2022-10-24T03:59:02;12.00;99.90
34873;DHT22;21084;51.098;14.506;2022-10-24T04:02:11;12.10;99.90
34873;DHT22;21084;51.098;14.506;2022-10-24T04:05:22;12.10;99.90
34873;DHT22;21084;51.098;14.506;2022-10-24T04:15:32;12.00;99.90
34873;DHT22;21084;51.098;14.506;2022-10-24T04:22:39;12.10;99.90
34873;DHT22;21084;51.098;14.506;2022-10-24T04:26:08;12.10;99.90
34873;DHT22;21084;51.098;14.506;2022-10-24T04:29:02;12.20;99.90
34873;DHT22;21084;51.098;14.506;2022-10-24T04:32:32;12.20;99.90
34873;DHT22;21084;51.098;14.506;2022-10-24T04:39:41;12.40;99.90
34873;DHT22;21084;51.098;14.506;2022-10-24T04:42:46;12.50;99.90
34873;DHT22;21084;51.098;14.506;2022-10-24T04:45:39;12.30;99.90
34873;DHT22;21084;51.098;14.506;2022-10-24T04:48:10;12.20;99.90
34873;DHT22;21084;51.098;14.506;2022-10-24T04:50:42;12.10;99.90
34873;DHT22;21084;51.098;14.506;2022-10-24T04:53:16;12.10;99.90
34873;DHT22;21084;51.098;14.506;2022-10-24T04:55:47;12.10;99.90
34873;DHT22;21084;51.098;14.506;2022-10-24T04:58:16;12.10;99.90
34873;DHT22;21084;51.098;14.506;2022-10-24T05:00:54;12.00;99.90
34873;DHT22;21084;51.098;14.506;2022-10-24T05:03:24;12.00;99.90
34873;DHT22;21084;51.098;14.506;2022-10-24T05:05:54;12.00;99.90
34873;DHT22;21084;51.098;14.506;2022-10-24T05:08:23;12.00;99.90
34873;DHT22;21084;51.098;14.506;2022-10-24T05:11:00;12.00;99.90
34873;DHT22;21084;51.098;14.506;2022-10-24T05:13:32;11.90;99.90
34873;DHT22;21084;51.098;14.506;2022-10-24T05:16:05;11.90;99.90
34873;DHT22;21084;51.098;14.506;2022-10-24T05:18:35;11.90;99.90
34873;DHT22;21084;51.098;14.506;2022-10-24T05:21:06;11.90;99.90
34873;DHT22;21084;51.098;14.506;2022-10-24T05:23:36;11.80;99.90
34873;DHT22;21084;51.098;14.506;2022-10-24T05:26:07;11.80;99.90
34873;DHT22;21084;51.098;14.506;2022-10-24T05:28:39;11.90;99.90
34873;DHT22;21084;51.098;14.506;2022-10-24T05:31:18;11.90;99.90
34873;DHT22;21084;51.098;14.506;2022-10-24T05:33:53;11.80;99.90
34873;DHT22;21084;51.098;14.506;2022-10-24T05:36:26;11.80;99.90
34873;DHT22;21084;51.098;14.506;2022-10-24T05:38:55;11.80;99.90
34873;DHT22;21084;51.098;14.506;2022-10-24T05:41:33;11.70;99.90
34873;DHT22;21084;51.098;14.506;2022-10-24T05:44:10;11.80;99.90
34873;DHT22;21084;51.098;14.506;2022-10-24T05:46:39;11.80;99.90
34873;DHT22;21084;51.098;14.506;2022-10-24T05:49:08;11.70;99.90
34873;DHT22;21084;51.098;14.506;2022-10-24T05:51:37;11.70;99.90
34873;DHT22;21084;51.098;14.506;2022-10-24T05:54:05;11.70;99.90
34873;DHT22;21084;51.098;14.506;2022-10-24T05:56:36;11.60;99.90
34873;DHT22;21084;51.098;14.506;2022-10-24T05:59:07;11.60;99.90
34873;DHT22;21084;51.098;14.506;2022-10-24T06:01:35;11.60;99.90
34873;DHT22;21084;51.098;14.506;2022-10-24T06:04:04;11.70;99.90
34873;DHT22;21084;51.098;14.506;2022-10-24T06:06:39;11.60;99.90
34873;DHT22;21084;51.098;14.506;2022-10-24T06:09:08;11.60;99.90
34873;DHT22;21084;51.098;14.506;2022-10-24T06:11:38;11.60;99.90
34873;DHT22;21084;51.098;14.506;2022-10-24T06:14:09;11.60;99.90
34873;DHT22;21084;51.098;14.506;2022-10-24T06:16:43;11.60;99.90
34873;DHT22;21084;51.098;14.506;2022-10-24T06:19:17;11.60;99.90
34873;DHT22;21084;51.098;14.506;2022-10-24T06:21:47;11.70;99.90
34873;DHT22;21084;51.098;14.506;2022-10-24T06:24:19;11.70;99.90
34873;DHT22;21084;51.098;14.506;2022-10-24T06:26:49;11.70;99.90
34873;DHT22;21084;51.098;14.506;2022-10-24T06:29:19;11.70;99.90
34873;DHT22;21084;51.098;14.506;2022-10-24T06:31:48;11.70;99.90
34873;DHT22;21084;51.098;14.506;2022-10-24T06:34:17;11.80;99.90
34873;DHT22;21084;51.098;14.506;2022-10-24T06:36:48;11.80;99.90
34873;DHT22;21084;51.098;14.506;2022-10-24T06:39:17;11.90;99.90
34873;DHT22;21084;51.098;14.506;2022-10-24T06:41:46;11.90;99.90
34873;DHT22;21084;51.098;14.506;2022-10-24T06:44:17;12.00;99.90
34873;DHT22;21084;51.098;14.506;2022-10-24T06:46:45;12.00;99.90
34873;DHT22;21084;51.098;14.506;2022-10-24T06:49:16;12.10;99.90
34873;DHT22;21084;51.098;14.506;2022-10-24T06:51:45;12.20;99.90
34873;DHT22;21084;51.098;14.506;2022-10-24T06:54:13;12.30;99.90
34873;DHT22;21084;51.098;14.506;2022-10-24T06:56:42;12.40;99.90
34873;DHT22;21084;51.098;14.506;2022-10-24T06:59:16;12.60;99.90
34873;DHT22;21084;51.098;14.506;2022-10-24T07:01:45;12.70;99.90
34873;DHT22;21084;51.098;14.506;2022-10-24T07:04:14;12.80;99.90
34873;DHT22;21084;51.098;14.506;2022-10-24T07:06:43;12.90;99.90
34873;DHT22;21084;51.098;14.506;2022-10-24T07:09:12;13.00;99.90
34873;DHT22;21084;51.098;14.506;2022-10-24T07:11:42;13.00;99.90
34873;DHT22;21084;51.098;14.506;2022-10-24T07:14:10;13.10;99.90
34873;DHT22;21084;51.098;14.506;2022-10-24T07:16:56;13.20;99.90
34873;DHT22;21084;51.098;14.506;2022-10-24T07:19:26;13.40;99.90
34873;DHT22;21084;51.098;14.506;2022-10-24T07:21:54;13.60;99.90
34873;DHT22;21084;51.098;14.506;2022-10-24T07:24:27;13.70;99.90
34873;DHT22;21084;51.098;14.506;2022-10-24T07:26:56;13.80;99.90
34873;DHT22;21084;51.098;14.506;2022-10-24T07:29:28;13.90;99.90
34873;DHT22;21084;51.098;14.506;2022-10-24T07:31:59;14.10;99.90
34873;DHT22;21084;51.098;14.506;2022-10-24T07:34:30;14.20;99.90
34873;DHT22;21084;51.098;14.506;2022-10-24T07:36:58;14.30;99.90
34873;DHT22;21084;51.098;14.506;2022-10-24T07:39:27;14.30;99.90
34873;DHT22;21084;51.098;14.506;2022-10-24T07:41:57;14.30;99.90
34873;DHT22;21084;51.098;14.506;2022-10-24T07:44:28;14.50;99.90
34873;DHT22;21084;51.098;14.506;2022-10-24T07:47:02;14.70;99.90
34873;DHT22;21084;51.098;14.506;2022-10-24T07:49:34;14.80;99.90
34873;DHT22;21084;51.098;14.506;2022-10-24T07:52:08;15.00;99.90
34873;DHT22;21084;51.098;14.506;2022-10-24T07:54:45;15.30;99.90
34873;DHT22;21084;51.098;14.506;2022-10-24T07:57:23;15.40;99.90
34873;DHT22;21084;51.098;14.506;2022-10-24T08:00:03;15.30;99.90
34873;DHT22;21084;51.098;14.506;2022-10-24T08:06:58;15.40;99.90
34873;DHT22;21084;51.098;14.506;2022-10-24T08:09:47;15.20;99.90
34873;DHT22;21084;51.098;14.506;2022-10-24T08:12:57;15.10;99.90
34873;DHT22;21084;51.098;14.506;2022-10-24T08:16:13;15.30;99.90
34873;DHT22;21084;51.098;14.506;2022-10-24T08:19:16;15.60;99.90
34873;DHT22;21084;51.098;14.506;2022-10-24T09:43:52;18.00;99.90
34873;DHT22;21084;51.098;14.506;2022-10-24T09:50:52;18.30;99.90
34873;DHT22;21084;51.098;14.506;2022-10-24T09:53:26;18.30;99.90
34873;DHT22;21084;51.098;14.506;2022-10-24T09:55:58;18.40;99.90
34873;DHT22;21084;51.098;14.506;2022-10-24T09:58:28;18.40;99.90
34873;DHT22;21084;51.098;14.506;2022-10-24T10:01:03;18.40;99.90
34873;DHT22;21084;51.098;14.506;2022-10-24T10:03:33;18.40;99.90
34873;DHT22;21084;51.098;14.506;2022-10-24T10:06:12;18.60;99.90
34873;DHT22;21084;51.098;14.506;2022-10-24T10:08:41;18.60;99.90
34873;DHT22;21084;51.098;14.506;2022-10-24T10:11:16;18.70;99.90
34873;DHT22;21084;51.098;14.506;2022-10-24T10:13:52;18.80;99.90
34873;DHT22;21084;51.098;14.506;2022-10-24T10:16:24;19.20;99.90
34873;DHT22;21084;51.098;14.506;2022-10-24T10:19:02;19.50;99.90
34873;DHT22;21084;51.098;14.506;2022-10-24T10:21:51;19.50;99.90
34873;DHT22;21084;51.098;14.506;2022-10-24T10:24:24;19.70;99.90
34873;DHT22;21084;51.098;14.506;2022-10-24T10:26:53;19.60;99.90
34873;DHT22;21084;51.098;14.506;2022-10-24T10:29:23;19.70;99.90
34873;DHT22;21084;51.098;14.506;2022-10-24T10:31:58;19.80;99.90
34873;DHT22;21084;51.098;14.506;2022-10-24T10:34:31;19.60;99.90
34873;DHT22;21084;51.098;14.506;2022-10-24T10:37:24;19.90;99.90
34873;DHT22;21084;51.098;14.506;2022-10-24T10:44:14;19.80;99.90
34873;DHT22;21084;51.098;14.506;2022-10-24T10:47:01;19.60;99.90
34873;DHT22;21084;51.098;14.506;2022-10-24T11:45:28;18.10;99.90
34873;DHT22;21084;51.098;14.506;2022-10-24T11:48:28;17.80;99.90
34873;DHT22;21084;51.098;14.506;2022-10-24T11:51:59;17.70;99.90
34873;DHT22;21084;51.098;14.506;2022-10-24T11:59:50;17.60;99.90
34873;DHT22;21084;51.098;14.506;2022-10-24T12:20:41;17.20;99.90
34873;DHT22;21084;51.098;14.506;2022-10-24T12:35:52;17.20;99.90
34873;DHT22;21084;51.098;14.506;2022-10-24T17:35:41;14.80;99.90
34873;DHT22;21084;51.098;14.506;2022-10-24T17:47:51;14.70;99.90
34873;DHT22;21084;51.098;14.506;2022-10-24T23:52:47;10.40;99.90
